createdAt,value
2023-04-26T00:02:19.588Z,48.73
2023-04-26T00:04:47.837Z,48.58
2023-04-26T00:07:16.144Z,48.68
2023-04-26T00:09:44.851Z,48.77
2023-04-26T00:12:12.457Z,48.68
2023-04-26T00:14:39.907Z,48.64
2023-04-26T00:17:06.862Z,48.82
2023-04-26T00:19:33.844Z,48.94
2023-04-26T00:22:00.857Z,48.90
2023-04-26T00:24:27.776Z,48.76
2023-04-26T00:26:57.666Z,49.03
2023-04-26T00:29:24.698Z,48.86
2023-04-26T00:31:51.715Z,48.86
2023-04-26T00:34:18.718Z,48.88
2023-04-26T00:36:46.479Z,48.72
2023-04-26T00:39:13.395Z,49.04
2023-04-26T00:41:40.320Z,49.07
2023-04-26T00:44:07.776Z,48.91
2023-04-26T00:46:35.109Z,48.84
2023-04-26T00:49:02.947Z,49.11
2023-04-26T00:51:30.081Z,48.88
2023-04-26T00:53:57.723Z,49.00
2023-04-26T00:56:26.695Z,49.20
2023-04-26T00:58:54.052Z,49.12
2023-04-26T01:01:21.782Z,49.04
2023-04-26T01:03:49.304Z,49.38
2023-04-26T01:06:16.781Z,49.23
2023-04-26T01:08:44.002Z,49.03
2023-04-26T01:11:11.219Z,49.28
2023-04-26T01:13:38.977Z,49.36
2023-04-26T01:16:08.444Z,49.11
2023-04-26T01:18:36.400Z,49.49
2023-04-26T01:21:04.514Z,49.19
2023-04-26T01:23:32.248Z,49.27
2023-04-26T01:25:59.289Z,49.28
2023-04-26T01:28:26.412Z,49.52
2023-04-26T01:30:53.584Z,49.48
2023-04-26T01:33:20.976Z,49.10
2023-04-26T01:35:47.923Z,49.23
2023-04-26T01:38:15.036Z,49.39
2023-04-26T01:40:46.396Z,49.24
2023-04-26T01:43:13.476Z,49.21
2023-04-26T01:45:40.466Z,49.62
2023-04-26T01:48:07.878Z,49.43
2023-04-26T01:50:34.837Z,49.66
2023-04-26T01:53:02.012Z,49.36
2023-04-26T01:55:28.994Z,49.39
2023-04-26T01:57:55.977Z,49.63
2023-04-26T02:00:23.174Z,49.62
2023-04-26T02:02:50.371Z,49.42
2023-04-26T02:05:17.483Z,49.51
2023-04-26T02:07:44.610Z,49.43
2023-04-26T02:10:11.591Z,49.73
2023-04-26T02:12:38.513Z,49.62
2023-04-26T02:15:06.605Z,49.60
2023-04-26T02:17:34.246Z,49.66
2023-04-26T02:20:01.290Z,50.04
2023-04-26T02:22:28.234Z,49.52
2023-04-26T02:24:55.241Z,49.73
2023-04-26T02:27:22.168Z,49.79
2023-04-26T02:29:49.306Z,49.91
2023-04-26T02:32:16.271Z,49.71
2023-04-26T02:34:43.732Z,49.96
2023-04-26T02:37:10.697Z,50.07
2023-04-26T02:39:37.671Z,49.93
2023-04-26T02:42:04.814Z,50.06
2023-04-26T02:44:31.853Z,49.98
2023-04-26T02:46:58.871Z,50.04
2023-04-26T02:49:25.950Z,49.94
2023-04-26T02:51:52.929Z,50.01
2023-04-26T02:54:19.905Z,49.74
2023-04-26T02:56:46.910Z,50.13
2023-04-26T02:59:13.962Z,49.90
2023-04-26T03:01:40.970Z,50.10
2023-04-26T03:04:08.135Z,50.26
2023-04-26T03:06:35.660Z,50.24
2023-04-26T03:09:02.747Z,49.93
2023-04-26T03:11:29.688Z,50.04
2023-04-26T03:13:56.615Z,50.19
2023-04-26T03:16:24.108Z,50.33
2023-04-26T03:18:51.385Z,49.80
2023-04-26T03:21:18.621Z,49.81
2023-04-26T03:23:45.672Z,49.74
2023-04-26T03:26:12.823Z,50.40
2023-04-26T03:28:39.812Z,50.22
2023-04-26T03:31:06.791Z,50.04
2023-04-26T03:33:33.760Z,50.36
2023-04-26T03:36:00.798Z,50.07
2023-04-26T03:38:27.772Z,50.29
2023-04-26T03:40:54.723Z,50.25
2023-04-26T03:43:21.786Z,50.76
2023-04-26T03:45:49.843Z,50.41
2023-04-26T03:48:17.519Z,50.34
2023-04-26T03:50:45.763Z,50.08
2023-04-26T03:53:13.173Z,50.10
2023-04-26T03:55:40.166Z,50.30
2023-04-26T03:58:08.416Z,50.15
2023-04-26T04:00:38.843Z,50.32
2023-04-26T04:03:07.471Z,50.18
2023-04-26T04:05:34.845Z,50.32
2023-04-26T04:08:02.157Z,50.15
2023-04-26T04:10:29.621Z,50.08
2023-04-26T04:12:56.765Z,50.04
2023-04-26T04:15:23.898Z,50.45
2023-04-26T04:17:50.913Z,50.54
2023-04-26T04:20:18.171Z,50.55
2023-04-26T04:22:45.074Z,50.40
2023-04-26T04:25:12.138Z,50.96
2023-04-26T04:27:39.129Z,50.55
2023-04-26T04:30:08.088Z,48.48
2023-04-26T04:32:36.358Z,49.80
2023-04-26T04:35:03.676Z,49.98
2023-04-26T04:37:33.897Z,50.24
2023-04-26T04:40:01.276Z,50.41
2023-04-26T04:42:28.661Z,50.71
2023-04-26T04:44:56.413Z,50.28
2023-04-26T04:47:23.438Z,50.34
2023-04-26T04:49:50.450Z,50.54
2023-04-26T04:52:18.900Z,50.69
2023-04-26T04:54:46.071Z,50.36
2023-04-26T04:57:14.257Z,50.17
2023-04-26T04:59:41.404Z,48.83
2023-04-26T05:02:08.369Z,49.54
2023-04-26T05:04:35.563Z,49.88
2023-04-26T05:07:02.591Z,49.81
2023-04-26T05:09:29.569Z,50.04
2023-04-26T05:11:56.479Z,48.64
2023-04-26T05:14:23.443Z,48.12
2023-04-26T05:16:50.484Z,48.85
2023-04-26T05:19:17.469Z,49.15
2023-04-26T05:21:44.433Z,49.46
2023-04-26T05:24:11.368Z,48.76
2023-04-26T05:26:38.436Z,48.66
2023-04-26T05:29:05.445Z,48.63
2023-04-26T05:31:32.375Z,48.88
2023-04-26T05:33:59.365Z,49.25
2023-04-26T05:36:29.636Z,48.88
2023-04-26T05:38:56.914Z,49.41
2023-04-26T05:41:23.904Z,49.89
2023-04-26T05:43:51.123Z,49.65
2023-04-26T05:46:18.382Z,49.90
2023-04-26T05:48:45.578Z,49.85
2023-04-26T05:51:12.546Z,49.99
2023-04-26T05:53:39.553Z,49.95
2023-04-26T05:56:07.505Z,49.89
2023-04-26T05:58:34.546Z,49.76
2023-04-26T06:01:01.558Z,49.86
2023-04-26T06:03:28.845Z,49.72
2023-04-26T06:05:56.351Z,49.92
2023-04-26T06:08:23.566Z,49.78
2023-04-26T06:10:50.624Z,49.88
2023-04-26T06:13:17.638Z,50.24
2023-04-26T06:15:44.730Z,50.07
2023-04-26T06:18:11.894Z,50.31
2023-04-26T06:20:38.863Z,50.36
2023-04-26T06:23:05.931Z,50.52
2023-04-26T06:25:34.342Z,46.44
2023-04-26T06:28:01.440Z,45.78
2023-04-26T06:30:28.875Z,46.70
2023-04-26T06:32:56.003Z,47.39
2023-04-26T06:35:25.023Z,48.63
2023-04-26T06:37:52.083Z,48.96
2023-04-26T06:40:19.335Z,49.39
2023-04-26T06:42:46.306Z,49.28
2023-04-26T06:45:13.427Z,49.35
2023-04-26T06:47:40.813Z,49.84
2023-04-26T06:50:08.551Z,49.60
2023-04-26T06:52:36.109Z,49.90
2023-04-26T06:55:04.919Z,50.08
2023-04-26T06:57:32.165Z,50.25
2023-04-26T06:59:59.458Z,50.08
2023-04-26T07:02:26.817Z,50.10
2023-04-26T07:04:54.586Z,50.25
2023-04-26T07:07:22.127Z,50.17
2023-04-26T07:09:50.152Z,50.34
2023-04-26T07:12:17.410Z,50.61
2023-04-26T07:14:44.557Z,50.75
2023-04-26T07:17:11.892Z,50.72
2023-04-26T07:19:39.282Z,50.83
2023-04-26T07:22:06.657Z,50.97
2023-04-26T07:24:34.859Z,50.95
2023-04-26T07:27:03.068Z,50.82
2023-04-26T07:29:30.288Z,51.04
2023-04-26T07:31:59.761Z,51.05
2023-04-26T07:34:28.175Z,50.88
2023-04-26T07:36:55.626Z,50.96
2023-04-26T07:39:22.804Z,50.96
2023-04-26T07:41:50.372Z,50.90
2023-04-26T07:44:17.348Z,51.00
2023-04-26T07:46:44.682Z,50.77
2023-04-26T07:49:12.458Z,50.97
2023-04-26T07:51:39.996Z,50.93
2023-04-26T07:54:07.513Z,50.94
2023-04-26T07:56:34.745Z,50.91
2023-04-26T07:59:02.023Z,51.21
2023-04-26T08:01:29.686Z,51.05
2023-04-26T08:03:57.086Z,51.18
2023-04-26T08:06:24.661Z,50.94
2023-04-26T08:08:54.035Z,51.13
2023-04-26T08:11:21.228Z,51.09
2023-04-26T08:13:48.554Z,50.92
2023-04-26T08:16:15.916Z,50.80
2023-04-26T08:18:45.367Z,50.96
2023-04-26T08:21:14.087Z,50.72
2023-04-26T08:23:41.083Z,50.69
2023-04-26T08:26:08.146Z,50.78
2023-04-26T08:28:36.131Z,50.74
2023-04-26T08:31:03.336Z,50.67
2023-04-26T08:33:30.943Z,50.46
2023-04-26T08:36:00.314Z,50.68
2023-04-26T08:38:27.838Z,50.35
2023-04-26T08:40:57.756Z,50.43
2023-04-26T08:43:25.334Z,50.41
2023-04-26T08:45:52.668Z,50.29
2023-04-26T08:48:20.816Z,50.48
2023-04-26T08:50:48.622Z,50.41
2023-04-26T08:53:20.127Z,50.22
2023-04-26T08:55:49.146Z,50.15
2023-04-26T08:58:17.494Z,50.33
2023-04-26T09:00:46.823Z,50.42
2023-04-26T09:03:14.364Z,50.41
2023-04-26T09:05:45.671Z,50.40
2023-04-26T09:08:16.570Z,50.33
2023-04-26T09:10:43.793Z,50.48
2023-04-26T09:13:11.879Z,50.05
2023-04-26T09:15:39.319Z,50.39
2023-04-26T09:18:23.676Z,50.12
2023-04-26T09:21:08.005Z,50.15
2023-04-26T09:23:35.722Z,50.18
2023-04-26T09:26:23.120Z,49.80
2023-04-26T09:28:51.376Z,50.09
2023-04-26T09:31:39.882Z,49.93
2023-04-26T09:34:07.321Z,50.02
2023-04-26T09:36:57.355Z,49.72
2023-04-26T09:39:35.853Z,49.81
2023-04-26T09:42:04.445Z,49.82
2023-04-26T09:44:32.547Z,49.81
2023-04-26T09:47:00.874Z,49.67
2023-04-26T09:49:43.779Z,49.74
2023-04-26T09:52:11.179Z,49.75
2023-04-26T09:54:41.407Z,49.72
2023-04-26T09:57:09.175Z,49.78
2023-04-26T09:59:49.233Z,49.75
2023-04-26T10:02:24.625Z,49.64
2023-04-26T10:04:53.914Z,49.81
2023-04-26T10:07:23.129Z,49.89
2023-04-26T10:09:51.007Z,49.59
2023-04-26T10:12:20.441Z,49.76
2023-04-26T10:14:48.075Z,49.76
2023-04-26T10:17:15.328Z,49.57
2023-04-26T10:19:46.981Z,49.48
2023-04-26T10:22:24.091Z,49.68
2023-04-26T10:24:54.293Z,49.74
2023-04-26T10:27:48.534Z,49.56
2023-04-26T10:30:17.453Z,49.91
2023-04-26T10:32:53.627Z,49.58
2023-04-26T10:35:22.182Z,49.65
2023-04-26T10:38:01.808Z,49.87
2023-04-26T10:40:41.480Z,49.75
2023-04-26T10:43:15.222Z,49.67
2023-04-26T10:45:47.194Z,50.03
2023-04-26T10:48:18.213Z,49.86
2023-04-26T10:51:00.533Z,49.79
2023-04-26T10:53:45.959Z,49.91
2023-04-26T10:56:33.880Z,49.67
2023-04-26T10:59:33.238Z,49.64
2023-04-26T11:02:02.005Z,49.78
2023-04-26T11:04:52.826Z,49.80
2023-04-26T11:07:40.172Z,49.27
2023-04-26T11:10:11.095Z,49.75
2023-04-26T11:12:42.504Z,49.61
2023-04-26T11:15:09.849Z,49.30
2023-04-26T11:17:40.254Z,49.71
2023-04-26T11:20:10.710Z,49.58
2023-04-26T11:22:41.293Z,49.70
2023-04-26T11:25:09.779Z,49.95
2023-04-26T11:27:37.295Z,50.11
2023-04-26T11:30:05.444Z,49.99
2023-04-26T11:32:33.898Z,50.30
2023-04-26T11:35:01.543Z,50.21
2023-04-26T11:37:28.763Z,50.62
2023-04-26T11:39:57.804Z,50.76
2023-04-26T11:42:27.701Z,50.51
2023-04-26T11:44:59.770Z,50.62
2023-04-26T11:47:31.371Z,50.83
2023-04-26T11:49:58.830Z,50.58
2023-04-26T11:52:26.953Z,50.93
2023-04-26T11:55:06.712Z,50.81
2023-04-26T11:57:35.758Z,50.94
2023-04-26T12:00:15.598Z,51.25
2023-04-26T12:02:46.858Z,50.79
2023-04-26T12:05:30.904Z,50.85
2023-04-26T12:07:59.613Z,51.01
2023-04-26T12:10:28.527Z,50.85
2023-04-26T12:12:57.270Z,50.99
2023-04-26T12:15:26.067Z,51.23
2023-04-26T12:17:59.421Z,51.04
2023-04-26T12:20:31.752Z,50.96
2023-04-26T12:23:08.876Z,51.17
2023-04-26T12:25:40.612Z,51.16
2023-04-26T12:28:14.506Z,51.27
2023-04-26T12:30:44.894Z,51.37
2023-04-26T12:33:17.470Z,51.25
2023-04-26T12:35:46.189Z,51.21
2023-04-26T12:38:14.781Z,51.27
2023-04-26T12:40:46.063Z,51.36
2023-04-26T12:43:13.377Z,51.20
2023-04-26T12:45:40.442Z,51.34
2023-04-26T12:48:07.544Z,50.95
2023-04-26T12:50:34.947Z,51.47
2023-04-26T12:53:02.126Z,51.03
2023-04-26T12:55:31.926Z,51.26
2023-04-26T12:57:59.867Z,51.02
2023-04-26T13:00:27.632Z,50.93
2023-04-26T13:02:56.118Z,51.21
2023-04-26T13:05:25.324Z,50.94
2023-04-26T13:07:52.596Z,50.82
2023-04-26T13:10:19.911Z,51.04
2023-04-26T13:12:47.035Z,51.01
2023-04-26T13:15:16.175Z,51.50
2023-04-26T13:17:44.839Z,51.51
2023-04-26T13:20:12.343Z,51.50
2023-04-26T13:22:42.278Z,51.67
2023-04-26T13:25:10.339Z,51.58
2023-04-26T13:27:37.382Z,51.67
2023-04-26T13:30:05.015Z,51.42
2023-04-26T13:32:32.459Z,51.69
2023-04-26T13:34:59.787Z,51.45
2023-04-26T13:37:27.362Z,51.66
2023-04-26T13:39:54.820Z,51.73
2023-04-26T13:42:22.500Z,51.86
2023-04-26T13:44:50.179Z,51.45
2023-04-26T13:47:18.043Z,51.54
2023-04-26T13:49:45.318Z,51.53
2023-04-26T13:52:12.439Z,51.62
2023-04-26T13:54:43.189Z,51.65
2023-04-26T13:57:10.676Z,51.69
2023-04-26T13:59:37.809Z,51.44
2023-04-26T14:02:04.832Z,51.68
2023-04-26T14:04:32.218Z,51.70
2023-04-26T14:06:59.505Z,51.55
2023-04-26T14:09:26.761Z,51.60
2023-04-26T14:12:06.628Z,51.83
2023-04-26T14:14:34.879Z,51.46
2023-04-26T14:17:02.296Z,51.36
2023-04-26T14:19:29.365Z,51.27
2023-04-26T14:21:56.493Z,51.25
2023-04-26T14:24:23.687Z,51.34
2023-04-26T14:26:51.003Z,51.31
2023-04-26T14:29:18.044Z,51.31
2023-04-26T14:31:45.601Z,51.14
2023-04-26T14:34:14.187Z,51.28
2023-04-26T14:36:41.973Z,51.28
2023-04-26T14:39:09.103Z,51.23
2023-04-26T14:41:36.210Z,51.26
2023-04-26T14:44:03.143Z,51.33
2023-04-26T14:46:30.593Z,51.24
2023-04-26T14:48:57.722Z,51.07
2023-04-26T14:51:25.982Z,51.37
2023-04-26T14:53:53.152Z,51.36
2023-04-26T14:56:20.267Z,51.13
2023-04-26T14:58:47.262Z,51.13
2023-04-26T15:01:14.736Z,51.30
2023-04-26T15:03:41.994Z,51.28
2023-04-26T15:06:10.292Z,51.17
2023-04-26T15:08:37.789Z,51.47
2023-04-26T15:11:05.219Z,51.30
2023-04-26T15:13:32.352Z,51.12
2023-04-26T15:16:05.410Z,51.16
2023-04-26T15:18:34.493Z,51.55
2023-04-26T15:21:01.685Z,50.93
2023-04-26T15:23:28.769Z,51.09
2023-04-26T15:25:56.074Z,51.31
2023-04-26T15:28:23.274Z,50.74
2023-04-26T15:30:51.048Z,49.50
2023-04-26T15:33:19.745Z,49.45
2023-04-26T15:35:52.035Z,49.69
2023-04-26T15:38:19.156Z,50.03
2023-04-26T15:40:46.895Z,49.42
2023-04-26T15:43:14.282Z,49.20
2023-04-26T15:45:41.725Z,48.84
2023-04-26T15:48:08.927Z,48.36
2023-04-26T15:50:37.824Z,48.90
2023-04-26T15:53:05.232Z,49.19
2023-04-26T15:55:35.741Z,49.49
2023-04-26T15:58:03.163Z,49.87
2023-04-26T16:00:31.991Z,49.97
2023-04-26T16:02:59.307Z,49.67
2023-04-26T16:05:27.072Z,50.02
2023-04-26T16:07:54.164Z,50.10
2023-04-26T16:10:21.552Z,50.03
2023-04-26T16:12:49.032Z,49.89
2023-04-26T16:15:16.208Z,50.31
2023-04-26T16:17:43.913Z,50.69
2023-04-26T16:20:12.018Z,50.65
2023-04-26T16:22:39.181Z,50.49
2023-04-26T16:25:07.265Z,51.09
2023-04-26T16:27:34.336Z,50.99
2023-04-26T16:30:02.423Z,51.15
2023-04-26T16:32:31.391Z,51.51
2023-04-26T16:34:58.878Z,50.93
2023-04-26T16:37:26.463Z,51.24
2023-04-26T16:39:57.008Z,51.36
2023-04-26T16:42:24.649Z,51.59
2023-04-26T16:44:51.809Z,51.51
2023-04-26T16:47:19.180Z,51.72
2023-04-26T16:49:47.218Z,51.70
2023-04-26T16:52:14.493Z,51.82
2023-04-26T16:54:42.317Z,51.49
2023-04-26T16:57:11.576Z,51.79
2023-04-26T16:59:38.930Z,51.99
2023-04-26T17:02:06.578Z,52.04
2023-04-26T17:04:34.329Z,51.82
2023-04-26T17:07:01.804Z,51.91
2023-04-26T17:09:32.805Z,51.92
2023-04-26T17:12:01.589Z,51.52
2023-04-26T17:14:29.054Z,51.69
2023-04-26T17:16:58.046Z,51.64
2023-04-26T17:19:25.713Z,52.02
2023-04-26T17:21:53.184Z,51.87
2023-04-26T17:24:20.749Z,51.92
2023-04-26T17:26:48.336Z,51.84
2023-04-26T17:29:19.545Z,52.30
2023-04-26T17:31:47.294Z,51.87
2023-04-26T17:34:14.688Z,51.80
2023-04-26T17:36:42.002Z,51.95
2023-04-26T17:39:09.929Z,51.76
2023-04-26T17:41:38.965Z,51.73
2023-04-26T17:44:06.627Z,52.04
2023-04-26T17:46:33.769Z,51.53
2023-04-26T17:49:00.919Z,51.40
2023-04-26T17:51:28.653Z,51.20
2023-04-26T17:53:55.960Z,50.84
2023-04-26T17:56:23.602Z,49.81
2023-04-26T17:58:52.405Z,50.18
2023-04-26T18:01:21.751Z,50.62
2023-04-26T18:03:49.829Z,50.42
2023-04-26T18:06:19.945Z,50.70
2023-04-26T18:08:47.835Z,50.88
2023-04-26T18:11:15.327Z,51.19
2023-04-26T18:13:43.723Z,51.07
2023-04-26T18:16:13.078Z,51.37
2023-04-26T18:18:40.360Z,51.33
2023-04-26T18:21:07.993Z,51.73
2023-04-26T18:23:35.362Z,51.45
2023-04-26T18:26:03.745Z,51.51
2023-04-26T18:28:31.766Z,51.49
2023-04-26T18:31:00.961Z,51.46
2023-04-26T18:33:30.021Z,51.35
2023-04-26T18:35:58.095Z,52.08
2023-04-26T18:38:25.757Z,49.69
2023-04-26T18:40:54.739Z,49.51
2023-04-26T18:43:25.070Z,50.19
2023-04-26T18:45:53.026Z,49.03
2023-04-26T18:48:21.727Z,49.07
2023-04-26T18:50:54.581Z,49.33
2023-04-26T18:53:28.162Z,49.63
2023-04-26T18:55:57.917Z,50.55
2023-04-26T18:58:25.347Z,50.79
2023-04-26T19:00:54.155Z,50.57
2023-04-26T19:03:23.359Z,50.48
2023-04-26T19:05:51.384Z,51.38
2023-04-26T19:08:18.963Z,51.14
2023-04-26T19:10:46.260Z,50.83
2023-04-26T19:13:13.730Z,51.00
2023-04-26T19:15:42.685Z,50.94
2023-04-26T19:18:11.938Z,51.21
2023-04-26T19:20:39.368Z,51.14
2023-04-26T19:23:07.307Z,51.07
2023-04-26T19:25:35.376Z,51.30
2023-04-26T19:28:03.301Z,51.05
2023-04-26T19:30:30.861Z,51.51
2023-04-26T19:33:00.182Z,51.57
2023-04-26T19:35:30.470Z,51.36
2023-04-26T19:38:00.608Z,51.45
2023-04-26T19:40:28.110Z,51.91
2023-04-26T19:42:55.312Z,52.45
2023-04-26T19:45:24.792Z,52.18
2023-04-26T19:47:53.357Z,52.62
2023-04-26T19:50:20.752Z,52.71
2023-04-26T19:52:48.091Z,52.94
2023-04-26T19:55:16.799Z,52.75
2023-04-26T19:57:48.037Z,52.68
2023-04-26T20:00:17.506Z,52.45
2023-04-26T20:02:46.340Z,52.03
2023-04-26T20:05:15.061Z,51.78
2023-04-26T20:07:43.346Z,51.58
2023-04-26T20:10:11.357Z,51.25
2023-04-26T20:12:40.396Z,50.72
2023-04-26T20:15:11.101Z,50.45
2023-04-26T20:17:42.796Z,49.94
2023-04-26T20:20:12.682Z,49.64
2023-04-26T20:22:42.279Z,49.62
2023-04-26T20:25:10.113Z,49.03
2023-04-26T20:27:37.699Z,48.95
2023-04-26T20:30:07.854Z,48.74
2023-04-26T20:32:35.584Z,48.53
2023-04-26T20:35:09.685Z,48.65
2023-04-26T20:37:37.242Z,48.55
2023-04-26T20:40:05.872Z,48.56
2023-04-26T20:42:33.318Z,48.17
2023-04-26T20:45:02.165Z,49.06
2023-04-26T20:47:30.683Z,48.43
2023-04-26T20:49:58.530Z,48.98
2023-04-26T20:52:26.257Z,49.03
2023-04-26T20:54:53.504Z,48.48
2023-04-26T20:57:20.810Z,48.48
2023-04-26T20:59:48.094Z,48.61
2023-04-26T21:02:16.584Z,47.71
2023-04-26T21:04:44.465Z,48.33
2023-04-26T21:07:12.151Z,48.15
2023-04-26T21:09:40.926Z,48.68
2023-04-26T21:12:08.203Z,48.07
2023-04-26T21:14:35.676Z,47.74
2023-04-26T21:17:05.903Z,47.14
2023-04-26T21:19:33.419Z,47.05
2023-04-26T21:22:00.915Z,47.37
2023-04-26T21:24:28.393Z,47.80
2023-04-26T21:26:55.989Z,48.11
2023-04-26T21:29:23.289Z,48.39
2023-04-26T21:31:50.433Z,47.31
2023-04-26T21:34:17.871Z,47.95
2023-04-26T21:36:45.174Z,48.10
2023-04-26T21:39:12.698Z,48.14
2023-04-26T21:41:40.467Z,48.33
2023-04-26T21:44:07.764Z,47.20
2023-04-26T21:46:36.217Z,47.14
2023-04-26T21:49:03.523Z,47.62
2023-04-26T21:51:31.744Z,48.46
2023-04-26T21:53:59.811Z,48.64
2023-04-26T21:56:27.083Z,48.46
2023-04-26T21:58:54.307Z,48.54
2023-04-26T22:01:21.368Z,48.47
2023-04-26T22:03:48.622Z,48.72
2023-04-26T22:06:15.800Z,48.57
2023-04-26T22:08:43.058Z,48.62
2023-04-26T22:11:10.126Z,48.53
2023-04-26T22:13:37.208Z,48.46
2023-04-26T22:16:04.523Z,48.52
2023-04-26T22:18:32.864Z,48.64
2023-04-26T22:20:59.961Z,48.67
2023-04-26T22:23:27.037Z,48.79
2023-04-26T22:25:54.225Z,48.96
2023-04-26T22:28:21.214Z,49.09
2023-04-26T22:30:48.299Z,49.06
2023-04-26T22:33:15.469Z,49.09
2023-04-26T22:35:42.596Z,49.06
2023-04-26T22:38:09.678Z,49.19
2023-04-26T22:40:36.674Z,49.32
2023-04-26T22:43:03.827Z,49.14
2023-04-26T22:45:30.907Z,49.35
2023-04-26T22:47:58.183Z,49.31
2023-04-26T22:50:25.260Z,49.49
2023-04-26T22:52:52.218Z,49.56
2023-04-26T22:55:19.531Z,49.34
2023-04-26T22:57:46.902Z,49.40
2023-04-26T23:00:15.007Z,49.56
2023-04-26T23:02:42.330Z,49.52
2023-04-26T23:05:10.595Z,49.64
2023-04-26T23:07:38.686Z,49.58
2023-04-26T23:10:06.616Z,49.63
2023-04-26T23:12:33.837Z,49.75
2023-04-26T23:15:00.956Z,49.72
2023-04-26T23:17:28.067Z,49.47
2023-04-26T23:19:55.431Z,49.66
2023-04-26T23:22:22.433Z,49.86
2023-04-26T23:24:49.550Z,49.95
2023-04-26T23:27:16.663Z,49.76
2023-04-26T23:29:43.610Z,50.04
2023-04-26T23:32:10.628Z,49.97
2023-04-26T23:34:37.585Z,50.02
2023-04-26T23:37:07.168Z,50.15
2023-04-26T23:39:36.312Z,50.10
2023-04-26T23:42:04.219Z,50.25
2023-04-26T23:44:31.228Z,50.33
2023-04-26T23:46:58.204Z,50.29
2023-04-26T23:49:25.270Z,50.12
2023-04-26T23:51:52.209Z,50.27
2023-04-26T23:54:19.349Z,50.43
2023-04-26T23:56:46.835Z,50.21
2023-04-26T23:59:14.820Z,50.14
